sensor_id;sensor_type;location;lat;lon;timestamp;P1;durP1;ratioP1;P2;durP2;ratioP2
72427;SDS011;60419;48.880;18.036;2023-09-12T00:02:01;13.35;;;10.88;;
72427;SDS011;60419;48.880;18.036;2023-09-12T00:04:47;14.02;;;10.70;;
72427;SDS011;60419;48.880;18.036;2023-09-12T00:07:36;13.30;;;10.32;;
72427;SDS011;60419;48.880;18.036;2023-09-12T00:10:23;13.55;;;10.13;;
72427;SDS011;60419;48.880;18.036;2023-09-12T00:13:08;12.70;;;10.27;;
72427;SDS011;60419;48.880;18.036;2023-09-12T00:15:54;14.40;;;10.38;;
72427;SDS011;60419;48.880;18.036;2023-09-12T00:18:39;13.23;;;10.93;;
72427;SDS011;60419;48.880;18.036;2023-09-12T00:21:25;17.42;;;10.65;;
72427;SDS011;60419;48.880;18.036;2023-09-12T00:24:10;14.50;;;10.77;;
72427;SDS011;60419;48.880;18.036;2023-09-12T00:26:55;14.48;;;10.93;;
72427;SDS011;60419;48.880;18.036;2023-09-12T00:29:41;14.00;;;10.68;;
72427;SDS011;60419;48.880;18.036;2023-09-12T00:32:26;12.68;;;11.00;;
72427;SDS011;60419;48.880;18.036;2023-09-12T00:35:12;17.77;;;12.45;;
72427;SDS011;60419;48.880;18.036;2023-09-12T00:37:57;16.20;;;12.20;;
72427;SDS011;60419;48.880;18.036;2023-09-12T00:40:42;14.27;;;11.63;;
72427;SDS011;60419;48.880;18.036;2023-09-12T00:43:28;15.65;;;12.25;;
72427;SDS011;60419;48.880;18.036;2023-09-12T00:46:18;17.73;;;11.88;;
72427;SDS011;60419;48.880;18.036;2023-09-12T00:49:04;16.60;;;12.48;;
72427;SDS011;60419;48.880;18.036;2023-09-12T00:51:51;15.55;;;11.98;;
72427;SDS011;60419;48.880;18.036;2023-09-12T00:54:36;15.48;;;12.52;;
72427;SDS011;60419;48.880;18.036;2023-09-12T00:57:22;15.43;;;11.27;;
72427;SDS011;60419;48.880;18.036;2023-09-12T01:00:10;15.73;;;12.20;;
72427;SDS011;60419;48.880;18.036;2023-09-12T01:02:57;18.45;;;13.20;;
72427;SDS011;60419;48.880;18.036;2023-09-12T01:05:43;14.85;;;12.50;;
72427;SDS011;60419;48.880;18.036;2023-09-12T01:08:29;15.02;;;12.10;;
72427;SDS011;60419;48.880;18.036;2023-09-12T01:11:15;18.05;;;12.07;;
72427;SDS011;60419;48.880;18.036;2023-09-12T01:14:02;16.50;;;12.38;;
72427;SDS011;60419;48.880;18.036;2023-09-12T01:16:47;14.10;;;11.40;;
72427;SDS011;60419;48.880;18.036;2023-09-12T01:19:32;18.23;;;12.90;;
72427;SDS011;60419;48.880;18.036;2023-09-12T01:25:35;16.27;;;11.98;;
72427;SDS011;60419;48.880;18.036;2023-09-12T01:28:26;13.88;;;11.80;;
72427;SDS011;60419;48.880;18.036;2023-09-12T01:31:15;16.98;;;12.15;;
72427;SDS011;60419;48.880;18.036;2023-09-12T01:34:11;17.10;;;12.88;;
72427;SDS011;60419;48.880;18.036;2023-09-12T01:36:57;18.33;;;13.05;;
72427;SDS011;60419;48.880;18.036;2023-09-12T01:39:43;14.93;;;12.20;;
72427;SDS011;60419;48.880;18.036;2023-09-12T01:42:30;14.98;;;13.10;;
72427;SDS011;60419;48.880;18.036;2023-09-12T01:45:20;16.33;;;12.15;;
72427;SDS011;60419;48.880;18.036;2023-09-12T01:48:06;16.27;;;12.68;;
72427;SDS011;60419;48.880;18.036;2023-09-12T01:50:52;18.58;;;12.60;;
72427;SDS011;60419;48.880;18.036;2023-09-12T01:53:38;16.13;;;12.32;;
72427;SDS011;60419;48.880;18.036;2023-09-12T01:56:24;14.77;;;12.77;;
72427;SDS011;60419;48.880;18.036;2023-09-12T01:59:10;15.25;;;12.13;;
72427;SDS011;60419;48.880;18.036;2023-09-12T02:01:56;16.40;;;13.02;;
72427;SDS011;60419;48.880;18.036;2023-09-12T02:04:42;16.05;;;12.75;;
72427;SDS011;60419;48.880;18.036;2023-09-12T02:07:48;16.08;;;12.95;;
72427;SDS011;60419;48.880;18.036;2023-09-12T02:10:34;19.27;;;13.13;;
72427;SDS011;60419;48.880;18.036;2023-09-12T02:13:19;20.77;;;14.45;;
72427;SDS011;60419;48.880;18.036;2023-09-12T02:16:05;19.50;;;13.38;;
72427;SDS011;60419;48.880;18.036;2023-09-12T02:18:50;18.67;;;14.60;;
72427;SDS011;60419;48.880;18.036;2023-09-12T02:21:35;16.45;;;13.00;;
72427;SDS011;60419;48.880;18.036;2023-09-12T02:24:21;17.35;;;12.80;;
72427;SDS011;60419;48.880;18.036;2023-09-12T02:27:06;15.85;;;12.55;;
72427;SDS011;60419;48.880;18.036;2023-09-12T02:29:52;15.93;;;12.43;;
72427;SDS011;60419;48.880;18.036;2023-09-12T02:32:37;14.85;;;12.27;;
72427;SDS011;60419;48.880;18.036;2023-09-12T02:35:22;14.98;;;12.32;;
72427;SDS011;60419;48.880;18.036;2023-09-12T02:38:08;20.95;;;13.05;;
72427;SDS011;60419;48.880;18.036;2023-09-12T02:40:54;16.83;;;12.77;;
72427;SDS011;60419;48.880;18.036;2023-09-12T02:43:40;20.48;;;12.23;;
72427;SDS011;60419;48.880;18.036;2023-09-12T02:46:26;16.08;;;12.73;;
72427;SDS011;60419;48.880;18.036;2023-09-12T02:49:11;18.33;;;11.85;;
72427;SDS011;60419;48.880;18.036;2023-09-12T02:51:57;16.38;;;12.02;;
72427;SDS011;60419;48.880;18.036;2023-09-12T02:54:42;18.27;;;12.80;;
72427;SDS011;60419;48.880;18.036;2023-09-12T02:57:27;15.85;;;11.95;;
72427;SDS011;60419;48.880;18.036;2023-09-12T03:00:13;18.13;;;13.05;;
72427;SDS011;60419;48.880;18.036;2023-09-12T03:02:58;15.90;;;12.60;;
72427;SDS011;60419;48.880;18.036;2023-09-12T03:05:44;16.17;;;13.45;;
72427;SDS011;60419;48.880;18.036;2023-09-12T03:08:29;15.70;;;12.98;;
72427;SDS011;60419;48.880;18.036;2023-09-12T03:11:14;17.60;;;12.25;;
72427;SDS011;60419;48.880;18.036;2023-09-12T03:14:00;15.68;;;12.65;;
72427;SDS011;60419;48.880;18.036;2023-09-12T03:16:45;18.75;;;13.52;;
72427;SDS011;60419;48.880;18.036;2023-09-12T03:19:31;17.25;;;13.43;;
72427;SDS011;60419;48.880;18.036;2023-09-12T03:22:16;21.83;;;14.57;;
72427;SDS011;60419;48.880;18.036;2023-09-12T03:25:01;19.17;;;14.25;;
72427;SDS011;60419;48.880;18.036;2023-09-12T03:27:47;18.20;;;13.18;;
72427;SDS011;60419;48.880;18.036;2023-09-12T03:30:33;18.45;;;14.70;;
72427;SDS011;60419;48.880;18.036;2023-09-12T03:33:19;16.67;;;14.43;;
72427;SDS011;60419;48.880;18.036;2023-09-12T03:36:05;23.13;;;14.93;;
72427;SDS011;60419;48.880;18.036;2023-09-12T03:38:51;17.85;;;13.98;;
72427;SDS011;60419;48.880;18.036;2023-09-12T03:41:36;18.33;;;14.73;;
72427;SDS011;60419;48.880;18.036;2023-09-12T03:44:22;17.60;;;13.05;;
72427;SDS011;60419;48.880;18.036;2023-09-12T03:47:07;18.70;;;13.27;;
72427;SDS011;60419;48.880;18.036;2023-09-12T03:49:53;18.90;;;14.55;;
72427;SDS011;60419;48.880;18.036;2023-09-12T03:52:38;16.83;;;14.25;;
72427;SDS011;60419;48.880;18.036;2023-09-12T03:55:23;16.73;;;13.73;;
72427;SDS011;60419;48.880;18.036;2023-09-12T03:58:09;16.73;;;13.90;;
72427;SDS011;60419;48.880;18.036;2023-09-12T04:00:54;18.85;;;14.13;;
72427;SDS011;60419;48.880;18.036;2023-09-12T04:03:40;19.73;;;14.35;;
72427;SDS011;60419;48.880;18.036;2023-09-12T04:06:25;19.23;;;14.27;;
72427;SDS011;60419;48.880;18.036;2023-09-12T04:09:10;18.75;;;15.02;;
72427;SDS011;60419;48.880;18.036;2023-09-12T04:11:56;19.23;;;15.10;;
72427;SDS011;60419;48.880;18.036;2023-09-12T04:14:41;17.88;;;14.52;;
72427;SDS011;60419;48.880;18.036;2023-09-12T04:17:26;18.92;;;14.23;;
72427;SDS011;60419;48.880;18.036;2023-09-12T04:20:12;22.25;;;14.70;;
72427;SDS011;60419;48.880;18.036;2023-09-12T04:23:01;21.17;;;13.35;;
72427;SDS011;60419;48.880;18.036;2023-09-12T04:25:47;19.63;;;13.23;;
72427;SDS011;60419;48.880;18.036;2023-09-12T04:28:33;19.35;;;13.45;;
72427;SDS011;60419;48.880;18.036;2023-09-12T04:31:18;17.55;;;12.65;;
72427;SDS011;60419;48.880;18.036;2023-09-12T04:34:04;17.17;;;12.90;;
72427;SDS011;60419;48.880;18.036;2023-09-12T04:36:50;17.15;;;13.05;;
72427;SDS011;60419;48.880;18.036;2023-09-12T04:39:35;19.00;;;13.65;;
72427;SDS011;60419;48.880;18.036;2023-09-12T04:42:21;21.90;;;15.15;;
72427;SDS011;60419;48.880;18.036;2023-09-12T04:45:06;18.23;;;14.27;;
72427;SDS011;60419;48.880;18.036;2023-09-12T04:47:52;17.33;;;13.63;;
72427;SDS011;60419;48.880;18.036;2023-09-12T04:50:41;19.40;;;14.48;;
72427;SDS011;60419;48.880;18.036;2023-09-12T04:53:27;19.38;;;14.77;;
72427;SDS011;60419;48.880;18.036;2023-09-12T04:56:19;18.23;;;13.88;;
72427;SDS011;60419;48.880;18.036;2023-09-12T04:59:04;18.95;;;12.90;;
72427;SDS011;60419;48.880;18.036;2023-09-12T05:01:51;17.40;;;13.10;;
72427;SDS011;60419;48.880;18.036;2023-09-12T05:04:37;17.20;;;12.77;;
72427;SDS011;60419;48.880;18.036;2023-09-12T05:07:22;16.25;;;12.88;;
72427;SDS011;60419;48.880;18.036;2023-09-12T05:10:07;17.30;;;11.77;;
72427;SDS011;60419;48.880;18.036;2023-09-12T05:12:53;19.17;;;12.63;;
72427;SDS011;60419;48.880;18.036;2023-09-12T05:15:40;14.07;;;10.90;;
72427;SDS011;60419;48.880;18.036;2023-09-12T05:18:26;18.48;;;10.98;;
72427;SDS011;60419;48.880;18.036;2023-09-12T05:21:11;13.15;;;10.23;;
72427;SDS011;60419;48.880;18.036;2023-09-12T05:23:56;13.45;;;10.15;;
72427;SDS011;60419;48.880;18.036;2023-09-12T05:26:42;14.98;;;10.95;;
72427;SDS011;60419;48.880;18.036;2023-09-12T05:29:27;19.90;;;12.00;;
72427;SDS011;60419;48.880;18.036;2023-09-12T05:32:12;17.95;;;12.07;;
72427;SDS011;60419;48.880;18.036;2023-09-12T05:34:58;13.70;;;10.52;;
72427;SDS011;60419;48.880;18.036;2023-09-12T05:37:44;16.23;;;11.68;;
72427;SDS011;60419;48.880;18.036;2023-09-12T05:40:29;16.52;;;12.30;;
72427;SDS011;60419;48.880;18.036;2023-09-12T05:43:14;16.48;;;12.20;;
72427;SDS011;60419;48.880;18.036;2023-09-12T05:46:00;17.55;;;12.73;;
72427;SDS011;60419;48.880;18.036;2023-09-12T05:48:45;16.50;;;12.43;;
72427;SDS011;60419;48.880;18.036;2023-09-12T05:51:31;18.05;;;13.27;;
72427;SDS011;60419;48.880;18.036;2023-09-12T05:54:16;20.15;;;12.40;;
72427;SDS011;60419;48.880;18.036;2023-09-12T05:57:02;16.60;;;13.05;;
72427;SDS011;60419;48.880;18.036;2023-09-12T05:59:48;18.77;;;13.38;;
72427;SDS011;60419;48.880;18.036;2023-09-12T06:02:33;16.67;;;13.20;;
72427;SDS011;60419;48.880;18.036;2023-09-12T06:05:19;16.10;;;12.43;;
72427;SDS011;60419;48.880;18.036;2023-09-12T06:08:04;16.83;;;13.30;;
72427;SDS011;60419;48.880;18.036;2023-09-12T06:10:50;16.92;;;12.63;;
72427;SDS011;60419;48.880;18.036;2023-09-12T06:13:38;18.33;;;13.02;;
72427;SDS011;60419;48.880;18.036;2023-09-12T06:16:24;16.42;;;12.55;;
72427;SDS011;60419;48.880;18.036;2023-09-12T06:19:09;16.48;;;12.35;;
72427;SDS011;60419;48.880;18.036;2023-09-12T06:21:55;18.92;;;12.60;;
72427;SDS011;60419;48.880;18.036;2023-09-12T06:24:40;15.68;;;11.85;;
72427;SDS011;60419;48.880;18.036;2023-09-12T06:27:26;19.20;;;13.27;;
72427;SDS011;60419;48.880;18.036;2023-09-12T06:30:11;14.23;;;11.80;;
72427;SDS011;60419;48.880;18.036;2023-09-12T06:32:57;17.52;;;11.93;;
72427;SDS011;60419;48.880;18.036;2023-09-12T06:35:42;14.60;;;11.30;;
72427;SDS011;60419;48.880;18.036;2023-09-12T06:38:28;15.88;;;10.85;;
72427;SDS011;60419;48.880;18.036;2023-09-12T06:41:13;15.95;;;11.40;;
72427;SDS011;60419;48.880;18.036;2023-09-12T06:43:58;19.10;;;11.68;;
72427;SDS011;60419;48.880;18.036;2023-09-12T06:46:44;14.27;;;10.68;;
72427;SDS011;60419;48.880;18.036;2023-09-12T06:49:29;14.48;;;10.20;;
72427;SDS011;60419;48.880;18.036;2023-09-12T06:52:17;13.73;;;9.98;;
72427;SDS011;60419;48.880;18.036;2023-09-12T06:55:02;14.65;;;10.25;;
72427;SDS011;60419;48.880;18.036;2023-09-12T06:57:48;12.80;;;10.48;;
72427;SDS011;60419;48.880;18.036;2023-09-12T07:00:33;14.93;;;10.70;;
72427;SDS011;60419;48.880;18.036;2023-09-12T07:03:18;12.55;;;10.68;;
72427;SDS011;60419;48.880;18.036;2023-09-12T07:06:04;13.68;;;9.82;;
72427;SDS011;60419;48.880;18.036;2023-09-12T07:08:50;12.32;;;9.77;;
72427;SDS011;60419;48.880;18.036;2023-09-12T07:11:36;13.10;;;10.27;;
72427;SDS011;60419;48.880;18.036;2023-09-12T07:14:21;15.07;;;10.57;;
72427;SDS011;60419;48.880;18.036;2023-09-12T07:17:08;13.52;;;9.88;;
72427;SDS011;60419;48.880;18.036;2023-09-12T07:19:54;12.88;;;9.52;;
72427;SDS011;60419;48.880;18.036;2023-09-12T07:22:39;12.93;;;9.43;;
72427;SDS011;60419;48.880;18.036;2023-09-12T07:25:25;14.30;;;9.68;;
72427;SDS011;60419;48.880;18.036;2023-09-12T07:28:10;13.38;;;9.65;;
72427;SDS011;60419;48.880;18.036;2023-09-12T07:30:56;11.52;;;9.23;;
72427;SDS011;60419;48.880;18.036;2023-09-12T07:33:42;11.10;;;9.38;;
72427;SDS011;60419;48.880;18.036;2023-09-12T07:36:27;14.30;;;8.65;;
72427;SDS011;60419;48.880;18.036;2023-09-12T07:39:13;13.60;;;9.05;;
72427;SDS011;60419;48.880;18.036;2023-09-12T07:41:58;10.60;;;8.98;;
72427;SDS011;60419;48.880;18.036;2023-09-12T07:44:44;11.73;;;8.63;;
72427;SDS011;60419;48.880;18.036;2023-09-12T07:47:29;10.85;;;9.00;;
72427;SDS011;60419;48.880;18.036;2023-09-12T07:50:14;19.30;;;9.60;;
72427;SDS011;60419;48.880;18.036;2023-09-12T07:53:00;14.95;;;9.15;;
72427;SDS011;60419;48.880;18.036;2023-09-12T07:55:45;14.60;;;8.48;;
72427;SDS011;60419;48.880;18.036;2023-09-12T07:58:31;12.02;;;9.15;;
72427;SDS011;60419;48.880;18.036;2023-09-12T08:01:16;11.82;;;9.45;;
72427;SDS011;60419;48.880;18.036;2023-09-12T08:04:02;14.52;;;9.65;;
72427;SDS011;60419;48.880;18.036;2023-09-12T08:06:48;13.98;;;10.07;;
72427;SDS011;60419;48.880;18.036;2023-09-12T08:10:06;13.07;;;8.82;;
72427;SDS011;60419;48.880;18.036;2023-09-12T08:12:44;12.48;;;9.60;;
72427;SDS011;60419;48.880;18.036;2023-09-12T08:15:30;15.25;;;9.88;;
72427;SDS011;60419;48.880;18.036;2023-09-12T08:18:15;13.27;;;9.98;;
72427;SDS011;60419;48.880;18.036;2023-09-12T08:21:01;14.20;;;10.02;;
72427;SDS011;60419;48.880;18.036;2023-09-12T08:23:47;15.23;;;11.30;;
72427;SDS011;60419;48.880;18.036;2023-09-12T08:26:33;13.65;;;9.35;;
72427;SDS011;60419;48.880;18.036;2023-09-12T08:29:18;13.48;;;8.60;;
72427;SDS011;60419;48.880;18.036;2023-09-12T08:32:04;13.73;;;8.80;;
72427;SDS011;60419;48.880;18.036;2023-09-12T08:34:49;10.77;;;7.55;;
72427;SDS011;60419;48.880;18.036;2023-09-12T08:37:34;9.38;;;7.45;;
72427;SDS011;60419;48.880;18.036;2023-09-12T08:40:20;12.75;;;7.50;;
72427;SDS011;60419;48.880;18.036;2023-09-12T08:43:05;9.38;;;6.68;;
72427;SDS011;60419;48.880;18.036;2023-09-12T08:45:52;12.07;;;7.07;;
72427;SDS011;60419;48.880;18.036;2023-09-12T08:48:37;10.55;;;6.95;;
72427;SDS011;60419;48.880;18.036;2023-09-12T08:51:24;12.75;;;7.22;;
72427;SDS011;60419;48.880;18.036;2023-09-12T08:54:10;10.40;;;6.53;;
72427;SDS011;60419;48.880;18.036;2023-09-12T08:56:55;9.88;;;7.10;;
72427;SDS011;60419;48.880;18.036;2023-09-12T08:59:41;9.82;;;6.70;;
72427;SDS011;60419;48.880;18.036;2023-09-12T09:02:28;11.32;;;6.43;;
72427;SDS011;60419;48.880;18.036;2023-09-12T09:05:14;10.90;;;6.50;;
72427;SDS011;60419;48.880;18.036;2023-09-12T09:08:01;10.73;;;6.13;;
72427;SDS011;60419;48.880;18.036;2023-09-12T09:10:54;10.00;;;6.13;;
72427;SDS011;60419;48.880;18.036;2023-09-12T09:13:40;10.77;;;6.95;;
72427;SDS011;60419;48.880;18.036;2023-09-12T09:16:27;10.40;;;7.32;;
72427;SDS011;60419;48.880;18.036;2023-09-12T09:19:12;11.63;;;7.20;;
72427;SDS011;60419;48.880;18.036;2023-09-12T09:22:04;11.93;;;6.90;;
72427;SDS011;60419;48.880;18.036;2023-09-12T09:24:52;13.57;;;7.80;;
72427;SDS011;60419;48.880;18.036;2023-09-12T09:27:56;10.05;;;6.85;;
72427;SDS011;60419;48.880;18.036;2023-09-12T09:30:42;9.88;;;7.10;;
72427;SDS011;60419;48.880;18.036;2023-09-12T09:33:30;10.23;;;7.20;;
72427;SDS011;60419;48.880;18.036;2023-09-12T09:39:05;11.02;;;6.55;;
72427;SDS011;60419;48.880;18.036;2023-09-12T09:41:52;10.32;;;6.43;;
72427;SDS011;60419;48.880;18.036;2023-09-12T09:44:38;9.32;;;6.43;;
72427;SDS011;60419;48.880;18.036;2023-09-12T09:47:24;10.98;;;6.78;;
72427;SDS011;60419;48.880;18.036;2023-09-12T09:50:13;10.30;;;6.82;;
72427;SDS011;60419;48.880;18.036;2023-09-12T09:52:59;9.32;;;6.22;;
72427;SDS011;60419;48.880;18.036;2023-09-12T09:55:46;8.73;;;6.20;;
72427;SDS011;60419;48.880;18.036;2023-09-12T09:58:32;14.30;;;6.22;;
72427;SDS011;60419;48.880;18.036;2023-09-12T10:01:21;10.48;;;5.93;;
72427;SDS011;60419;48.880;18.036;2023-09-12T10:04:09;8.10;;;5.53;;
72427;SDS011;60419;48.880;18.036;2023-09-12T10:06:56;9.77;;;5.70;;
72427;SDS011;60419;48.880;18.036;2023-09-12T10:09:43;11.77;;;6.07;;
72427;SDS011;60419;48.880;18.036;2023-09-12T10:12:30;8.48;;;6.05;;
72427;SDS011;60419;48.880;18.036;2023-09-12T10:15:17;8.02;;;5.68;;
72427;SDS011;60419;48.880;18.036;2023-09-12T10:18:07;7.07;;;5.47;;
72427;SDS011;60419;48.880;18.036;2023-09-12T10:20:55;9.20;;;5.43;;
72427;SDS011;60419;48.880;18.036;2023-09-12T10:23:48;9.57;;;5.25;;
72427;SDS011;60419;48.880;18.036;2023-09-12T10:26:36;8.52;;;5.10;;
72427;SDS011;60419;48.880;18.036;2023-09-12T10:29:22;8.35;;;5.15;;
72427;SDS011;60419;48.880;18.036;2023-09-12T10:32:08;8.60;;;5.53;;
72427;SDS011;60419;48.880;18.036;2023-09-12T10:34:54;10.88;;;5.70;;
72427;SDS011;60419;48.880;18.036;2023-09-12T10:37:43;7.22;;;5.25;;
72427;SDS011;60419;48.880;18.036;2023-09-12T10:40:31;9.45;;;5.25;;
72427;SDS011;60419;48.880;18.036;2023-09-12T10:43:18;8.88;;;5.45;;
72427;SDS011;60419;48.880;18.036;2023-09-12T10:46:06;11.30;;;5.70;;
72427;SDS011;60419;48.880;18.036;2023-09-12T10:48:52;8.90;;;5.53;;
72427;SDS011;60419;48.880;18.036;2023-09-12T10:51:38;8.10;;;5.18;;
72427;SDS011;60419;48.880;18.036;2023-09-12T10:54:39;10.63;;;5.20;;
72427;SDS011;60419;48.880;18.036;2023-09-12T10:57:25;10.02;;;5.70;;
72427;SDS011;60419;48.880;18.036;2023-09-12T11:00:11;8.20;;;5.45;;
72427;SDS011;60419;48.880;18.036;2023-09-12T11:02:57;10.82;;;5.03;;
72427;SDS011;60419;48.880;18.036;2023-09-12T11:05:52;9.50;;;5.30;;
72427;SDS011;60419;48.880;18.036;2023-09-12T11:08:40;11.00;;;5.20;;
72427;SDS011;60419;48.880;18.036;2023-09-12T11:11:25;9.93;;;4.78;;
72427;SDS011;60419;48.880;18.036;2023-09-12T11:14:11;13.20;;;5.38;;
72427;SDS011;60419;48.880;18.036;2023-09-12T11:19:55;9.50;;;4.80;;
72427;SDS011;60419;48.880;18.036;2023-09-12T11:22:54;10.68;;;4.90;;
72427;SDS011;60419;48.880;18.036;2023-09-12T11:26:02;9.63;;;5.20;;
72427;SDS011;60419;48.880;18.036;2023-09-12T11:28:51;10.82;;;4.95;;
72427;SDS011;60419;48.880;18.036;2023-09-12T11:31:37;10.07;;;5.07;;
72427;SDS011;60419;48.880;18.036;2023-09-12T11:34:27;7.50;;;4.70;;
72427;SDS011;60419;48.880;18.036;2023-09-12T11:37:21;9.45;;;5.22;;
72427;SDS011;60419;48.880;18.036;2023-09-12T11:42:57;9.63;;;5.40;;
72427;SDS011;60419;48.880;18.036;2023-09-12T11:45:43;9.90;;;4.65;;
72427;SDS011;60419;48.880;18.036;2023-09-12T11:48:29;8.05;;;4.68;;
72427;SDS011;60419;48.880;18.036;2023-09-12T11:51:15;10.45;;;5.50;;
72427;SDS011;60419;48.880;18.036;2023-09-12T11:54:00;9.85;;;4.70;;
72427;SDS011;60419;48.880;18.036;2023-09-12T11:56:46;9.38;;;5.32;;
72427;SDS011;60419;48.880;18.036;2023-09-12T11:59:36;8.73;;;4.70;;
72427;SDS011;60419;48.880;18.036;2023-09-12T12:02:23;10.27;;;4.65;;
72427;SDS011;60419;48.880;18.036;2023-09-12T12:05:09;10.40;;;4.68;;
72427;SDS011;60419;48.880;18.036;2023-09-12T12:07:55;7.63;;;4.38;;
72427;SDS011;60419;48.880;18.036;2023-09-12T12:10:40;13.82;;;4.70;;
72427;SDS011;60419;48.880;18.036;2023-09-12T12:13:26;6.97;;;4.53;;
72427;SDS011;60419;48.880;18.036;2023-09-12T12:16:16;8.73;;;5.47;;
72427;SDS011;60419;48.880;18.036;2023-09-12T12:19:02;10.23;;;4.93;;
72427;SDS011;60419;48.880;18.036;2023-09-12T12:21:47;10.77;;;5.10;;
72427;SDS011;60419;48.880;18.036;2023-09-12T12:24:36;9.80;;;4.68;;
72427;SDS011;60419;48.880;18.036;2023-09-12T12:27:32;9.05;;;4.95;;
72427;SDS011;60419;48.880;18.036;2023-09-12T12:30:17;7.75;;;5.13;;
72427;SDS011;60419;48.880;18.036;2023-09-12T12:33:07;7.80;;;4.97;;
72427;SDS011;60419;48.880;18.036;2023-09-12T12:36:00;9.40;;;5.00;;
72427;SDS011;60419;48.880;18.036;2023-09-12T12:38:49;10.75;;;4.65;;
72427;SDS011;60419;48.880;18.036;2023-09-12T12:41:35;10.27;;;4.95;;
72427;SDS011;60419;48.880;18.036;2023-09-12T12:44:21;12.80;;;4.53;;
72427;SDS011;60419;48.880;18.036;2023-09-12T12:47:08;12.13;;;5.05;;
72427;SDS011;60419;48.880;18.036;2023-09-12T12:49:54;8.35;;;5.15;;
72427;SDS011;60419;48.880;18.036;2023-09-12T12:52:40;9.20;;;5.03;;
72427;SDS011;60419;48.880;18.036;2023-09-12T12:55:27;9.10;;;4.28;;
72427;SDS011;60419;48.880;18.036;2023-09-12T12:58:12;10.73;;;4.90;;
72427;SDS011;60419;48.880;18.036;2023-09-12T13:00:58;9.23;;;4.50;;
72427;SDS011;60419;48.880;18.036;2023-09-12T13:03:44;11.38;;;3.95;;
72427;SDS011;60419;48.880;18.036;2023-09-12T13:06:30;15.25;;;4.55;;
72427;SDS011;60419;48.880;18.036;2023-09-12T13:09:15;7.82;;;4.22;;
72427;SDS011;60419;48.880;18.036;2023-09-12T13:12:01;8.40;;;4.00;;
72427;SDS011;60419;48.880;18.036;2023-09-12T13:14:47;9.80;;;3.90;;
72427;SDS011;60419;48.880;18.036;2023-09-12T13:17:32;7.75;;;3.90;;
72427;SDS011;60419;48.880;18.036;2023-09-12T13:20:18;8.15;;;3.58;;
72427;SDS011;60419;48.880;18.036;2023-09-12T13:23:03;8.68;;;3.65;;
72427;SDS011;60419;48.880;18.036;2023-09-12T13:25:49;7.90;;;3.30;;
72427;SDS011;60419;48.880;18.036;2023-09-12T13:28:34;8.63;;;4.22;;
72427;SDS011;60419;48.880;18.036;2023-09-12T13:31:20;9.95;;;3.65;;
72427;SDS011;60419;48.880;18.036;2023-09-12T13:34:05;8.18;;;3.45;;
72427;SDS011;60419;48.880;18.036;2023-09-12T13:36:51;8.02;;;3.80;;
72427;SDS011;60419;48.880;18.036;2023-09-12T13:39:36;7.47;;;4.03;;
72427;SDS011;60419;48.880;18.036;2023-09-12T13:42:22;8.05;;;3.70;;
72427;SDS011;60419;48.880;18.036;2023-09-12T13:45:07;6.28;;;3.50;;
72427;SDS011;60419;48.880;18.036;2023-09-12T13:47:53;9.93;;;4.28;;
72427;SDS011;60419;48.880;18.036;2023-09-12T13:50:38;8.45;;;3.90;;
72427;SDS011;60419;48.880;18.036;2023-09-12T13:53:24;9.10;;;3.80;;
72427;SDS011;60419;48.880;18.036;2023-09-12T13:56:09;10.52;;;3.78;;
72427;SDS011;60419;48.880;18.036;2023-09-12T13:58:55;10.15;;;3.75;;
72427;SDS011;60419;48.880;18.036;2023-09-12T14:01:40;10.52;;;3.55;;
72427;SDS011;60419;48.880;18.036;2023-09-12T14:04:26;8.98;;;4.22;;
72427;SDS011;60419;48.880;18.036;2023-09-12T14:07:11;8.85;;;4.00;;
72427;SDS011;60419;48.880;18.036;2023-09-12T14:09:56;8.88;;;3.78;;
72427;SDS011;60419;48.880;18.036;2023-09-12T14:12:42;7.88;;;3.50;;
72427;SDS011;60419;48.880;18.036;2023-09-12T14:15:29;7.60;;;3.90;;
72427;SDS011;60419;48.880;18.036;2023-09-12T14:18:14;5.70;;;3.38;;
72427;SDS011;60419;48.880;18.036;2023-09-12T14:21:00;7.68;;;3.97;;
72427;SDS011;60419;48.880;18.036;2023-09-12T14:23:46;10.95;;;4.07;;
72427;SDS011;60419;48.880;18.036;2023-09-12T14:26:31;6.90;;;3.83;;
72427;SDS011;60419;48.880;18.036;2023-09-12T14:29:17;9.57;;;3.65;;
72427;SDS011;60419;48.880;18.036;2023-09-12T14:32:02;7.15;;;3.72;;
72427;SDS011;60419;48.880;18.036;2023-09-12T14:34:47;7.00;;;3.90;;
72427;SDS011;60419;48.880;18.036;2023-09-12T14:37:33;10.60;;;3.67;;
72427;SDS011;60419;48.880;18.036;2023-09-12T14:40:18;10.43;;;3.90;;
72427;SDS011;60419;48.880;18.036;2023-09-12T14:43:04;8.63;;;3.78;;
72427;SDS011;60419;48.880;18.036;2023-09-12T14:45:49;7.40;;;3.50;;
72427;SDS011;60419;48.880;18.036;2023-09-12T14:48:34;7.43;;;3.70;;
72427;SDS011;60419;48.880;18.036;2023-09-12T14:51:21;11.50;;;3.80;;
72427;SDS011;60419;48.880;18.036;2023-09-12T14:54:06;7.95;;;4.03;;
72427;SDS011;60419;48.880;18.036;2023-09-12T14:56:52;8.88;;;4.13;;
72427;SDS011;60419;48.880;18.036;2023-09-12T14:59:37;9.43;;;4.68;;
72427;SDS011;60419;48.880;18.036;2023-09-12T15:02:24;8.48;;;3.90;;
72427;SDS011;60419;48.880;18.036;2023-09-12T15:05:16;11.60;;;3.75;;
72427;SDS011;60419;48.880;18.036;2023-09-12T15:08:01;9.45;;;4.30;;
72427;SDS011;60419;48.880;18.036;2023-09-12T15:10:48;9.77;;;4.15;;
72427;SDS011;60419;48.880;18.036;2023-09-12T15:13:33;15.43;;;4.20;;
72427;SDS011;60419;48.880;18.036;2023-09-12T15:16:18;9.15;;;4.28;;
72427;SDS011;60419;48.880;18.036;2023-09-12T15:19:04;8.52;;;4.20;;
72427;SDS011;60419;48.880;18.036;2023-09-12T15:21:49;12.85;;;5.13;;
72427;SDS011;60419;48.880;18.036;2023-09-12T15:24:34;8.93;;;4.18;;
72427;SDS011;60419;48.880;18.036;2023-09-12T15:27:20;8.77;;;4.30;;
72427;SDS011;60419;48.880;18.036;2023-09-12T15:30:05;10.57;;;4.55;;
72427;SDS011;60419;48.880;18.036;2023-09-12T15:32:51;13.05;;;5.20;;
72427;SDS011;60419;48.880;18.036;2023-09-12T15:35:37;12.23;;;5.47;;
72427;SDS011;60419;48.880;18.036;2023-09-12T15:38:22;11.82;;;4.93;;
72427;SDS011;60419;48.880;18.036;2023-09-12T15:41:07;9.07;;;4.75;;
72427;SDS011;60419;48.880;18.036;2023-09-12T15:43:53;11.43;;;5.05;;
72427;SDS011;60419;48.880;18.036;2023-09-12T15:46:38;13.50;;;5.05;;
72427;SDS011;60419;48.880;18.036;2023-09-12T15:49:27;10.65;;;5.20;;
72427;SDS011;60419;48.880;18.036;2023-09-12T15:52:13;10.65;;;5.05;;
72427;SDS011;60419;48.880;18.036;2023-09-12T15:54:59;10.52;;;5.22;;
72427;SDS011;60419;48.880;18.036;2023-09-12T15:57:44;12.80;;;5.15;;
72427;SDS011;60419;48.880;18.036;2023-09-12T16:00:30;11.18;;;4.60;;
72427;SDS011;60419;48.880;18.036;2023-09-12T16:03:15;11.10;;;4.78;;
72427;SDS011;60419;48.880;18.036;2023-09-12T16:06:01;12.45;;;6.45;;
72427;SDS011;60419;48.880;18.036;2023-09-12T16:08:47;10.73;;;6.30;;
72427;SDS011;60419;48.880;18.036;2023-09-12T16:11:32;11.32;;;5.82;;
72427;SDS011;60419;48.880;18.036;2023-09-12T16:14:18;9.52;;;5.68;;
72427;SDS011;60419;48.880;18.036;2023-09-12T16:17:04;9.82;;;5.40;;
72427;SDS011;60419;48.880;18.036;2023-09-12T16:19:49;11.02;;;5.88;;
72427;SDS011;60419;48.880;18.036;2023-09-12T16:22:35;9.65;;;5.40;;